Latest Weather Observations for Mandora

IDW60801

Issued at 8:03 pm WST Wednesday 24 August 2016 (issued every 30 minutes, with the page automatically refreshed every 10 minutes)

About weather observations | Map of weather stations | Latest weather observations for WA | Other Formats
Station Details ID: 004019 Name: MANDORA Lat: -19.74 Lon: 120.84 Height: 7.5 m
Data from the previous 72 hours. | See also: Recent months at Mandora
Date/Time
WST
Temp
°C
App
Temp
°C
Dew
Point
°C
Rel
Hum
%
Delta-T
°C
Wind Press
QNH
hPa
Press
MSL
hPa
Rain since
9am
mm
Dir  Spd
km/h
Gust
km/h
Spd
kts
Gust
kts
24/08:00pm 18.9 15.3 0.5 29 8.1 S 9 17 5 9 1014.2 1014.1 0.0
24/07:30pm 17.2 14.9 7.3 52 5.0 W 9 11 5 6 1014.0 1013.9 0.0
24/07:00pm 18.4 16.3 8.1 51 5.3 WSW 9 13 5 7 1013.8 1013.7 0.0
24/06:30pm 20.1 17.8 9.1 49 5.8 WSW 11 15 6 8 1013.2 1013.1 0.0
24/06:00pm 21.5 18.7 8.7 44 6.8 WNW 13 17 7 9 1012.7 1012.6 0.0
24/05:30pm 23.9 21.8 6.7 33 8.9 NW 7 15 4 8 1012.4 1012.3 0.0
24/05:00pm 27.8 22.6 -6.6 10 14.4 SE 13 19 7 10 1012.1 1012.0 0.0
24/04:30pm 28.3 22.6 -7.6 9 14.8 ESE 15 22 8 12 1012.0 1011.9 0.0
24/04:00pm 29.1 23.4 -7.0 9 15.1 ESE 15 24 8 13 1011.9 1011.8 0.0
24/03:30pm 28.4 22.7 -7.5 9 14.8 SSE 15 28 8 15 1012.0 1011.9 0.0
24/03:00pm 28.9 22.9 -7.1 9 15.0 ESE 17 28 9 15 1012.1 1012.0 0.0
24/02:30pm 27.8 22.4 -7.9 9 14.6 SSE 13 22 7 12 1012.1 1012.0 0.0
24/02:00pm 28.6 22.7 -6.0 10 14.7 SE 17 30 9 16 1012.3 1012.2 0.0
24/01:30pm 28.5 22.6 -6.0 10 14.6 ESE 17 28 9 15 1012.5 1012.4 0.0
24/01:00pm 28.9 23.9 -4.5 11 14.6 ESE 13 22 7 12 1013.0 1012.9 0.0
24/12:30pm 28.3 23.4 -3.8 12 14.1 E 13 24 7 13 1013.4 1013.3 0.0
24/12:00pm 28.1 22.4 -3.9 12 14.0 E 17 35 9 19 1014.2 1014.1 0.0
24/11:30am 26.6 20.6 -3.1 14 13.1 ESE 19 30 10 16 1014.8 1014.7 0.0
24/11:00am 25.8 19.5 -3.7 14 12.7 ESE 20 32 11 17 1015.5 1015.4 0.0
24/10:30am 25.5 19.2 -1.3 17 12.1 ESE 22 39 12 21 1015.9 1015.8 0.0
24/10:00am 24.3 18.1 -0.1 20 11.1 ESE 22 35 12 19 1016.3 1016.2 0.0
24/09:30am 22.7 16.5 -0.1 22 10.3 SE 22 33 12 18 1016.7 1016.6 0.0
24/09:00am 21.8 15.7 0.4 24 9.7 SE 22 37 12 20 1016.9 1016.8 0.0
24/08:30am 20.3 14.3 1.2 28 8.7 SE 22 37 12 20 1016.7 1016.6 0.0
24/08:00am 18.5 12.6 1.5 32 7.6 SE 22 35 12 19 1016.5 1016.4 0.0
24/07:30am 16.8 11.4 1.3 35 6.8 SE 19 32 10 17 1016.1 1016.0 0.0
24/07:00am 14.9 9.9 1.1 39 6.0 SSE 17 28 9 15 1015.6 1015.5 0.0
24/06:30am 13.4 8.4 1.1 43 5.2 SSE 17 24 9 13 1015.3 1015.2 0.0
24/06:00am 12.4 7.7 1.1 46 4.8 SSE 15 20 8 11 1014.9 1014.8 0.0
24/05:30am 11.9 6.8 1.0 47 4.6 SSE 17 20 9 11 1014.7 1014.6 0.0
24/05:00am 11.9 7.2 0.7 46 4.7 SSE 15 20 8 11 1014.5 1014.4 0.0
24/04:30am 12.2 7.8 0.6 45 4.8 S 13 19 7 10 1014.2 1014.1 0.0
24/04:00am 12.6 7.8 0.4 43 5.1 SSE 15 17 8 9 1014.1 1014.0 0.0
24/03:30am 13.1 8.3 0.2 41 5.4 SSE 15 17 8 9 1013.8 1013.7 0.0
24/03:00am 13.7 8.9 0.0 39 5.7 SSE 15 20 8 11 1013.7 1013.6 0.0
24/02:30am 14.5 9.6 -0.4 36 6.2 SSE 15 20 8 11 1013.5 1013.4 0.0
24/02:00am 15.1 10.2 -0.2 35 6.4 SSE 15 20 8 11 1013.6 1013.5 0.0
24/01:30am 14.1 9.2 -0.4 37 6.0 SSE 15 19 8 10 1013.7 1013.6 0.0
24/01:00am 13.7 8.8 -0.7 37 5.9 SSE 15 19 8 10 1013.8 1013.7 0.0
24/12:30am 13.4 8.8 -1.0 37 5.9 SSE 13 17 7 9 1013.8 1013.7 0.0
24/12:00am 13.6 9.0 -1.2 36 6.0 S 13 15 7 8 1013.8 1013.7 0.0
 
Date/Time
WST
Temp
°C
App
Temp
°C
Dew
Point
°C
Rel
Hum
%
Delta-T
°C
Wind Press
QNH
hPa
Press
MSL
hPa
Rain since
9am
mm
Dir  Spd
km/h
Gust
km/h
Spd
kts
Gust
kts
23/11:30pm 14.0 9.4 -1.2 35 6.2 S 13 15 7 8 1013.9 1013.8 0.0
23/11:00pm 14.8 10.5 -1.3 33 6.6 SSE 11 17 6 9 1013.9 1013.8 0.0
23/10:30pm 14.6 9.6 -1.5 33 6.6 SSE 15 19 8 10 1013.9 1013.8 0.0
23/10:00pm 14.8 10.1 -1.7 32 6.7 SSE 13 15 7 8 1014.1 1014.0 0.0
23/09:30pm 16.1 11.4 -1.9 29 7.4 S 13 17 7 9 1013.9 1013.8 0.0
23/09:00pm 16.6 11.9 -2.0 28 7.6 S 13 19 7 10 1013.8 1013.7 0.0
23/08:30pm 17.3 12.5 -2.4 26 8.1 S 13 20 7 11 1013.6 1013.5 0.0
23/08:00pm 17.9 13.1 -2.4 25 8.4 S 13 17 7 9 1013.3 1013.2 0.0
23/07:30pm 18.2 13.5 -2.1 25 8.4 SSE 13 17 7 9 1012.9 1012.8 0.0
23/07:00pm 17.8 13.4 -2.5 25 8.3 S 11 13 6 7 1012.5 1012.4 0.0
23/06:30pm 20.0 15.9 -3.0 21 9.6 SSE 9 11 5 6 1012.1 1012.0 0.0
23/06:00pm 21.6 17.4 -3.7 18 10.5 SSE 9 15 5 8 1011.7 1011.6 0.0
23/05:30pm 23.7 19.1 -4.4 15 11.8 SSE 11 22 6 12 1011.4 1011.3 0.0
23/05:00pm 24.9 19.5 -4.4 14 12.4 SSE 15 24 8 13 1011.2 1011.1 0.0
23/04:30pm 25.7 20.7 -4.7 13 12.9 SE 13 22 7 12 1010.9 1010.8 0.0
23/04:00pm 26.0 20.7 -3.5 14 12.8 SSE 15 26 8 14 1010.7 1010.6 0.0
23/03:30pm 26.3 21.3 -4.3 13 13.1 SE 13 22 7 12 1010.5 1010.4 0.0
23/03:00pm 26.0 20.5 -5.6 12 13.2 SSE 15 26 8 14 1010.6 1010.5 0.0
23/02:30pm 25.7 19.3 -4.7 13 12.9 SSE 20 33 11 18 1010.7 1010.6 0.0
23/02:00pm 25.1 19.5 -3.3 15 12.3 SSE 17 26 9 14 1010.9 1010.8 0.0
23/01:30pm 25.0 19.3 -3.4 15 12.3 SE 17 30 9 16 1011.3 1011.2 0.0
23/01:00pm 24.8 18.8 -1.9 17 11.8 SE 20 32 11 17 1011.7 1011.6 0.0
23/12:30pm 24.2 18.2 -1.6 18 11.4 SE 20 37 11 20 1012.3 1012.2 0.0
23/12:00pm 23.6 17.8 -1.3 19 11.1 SE 19 35 10 19 1012.7 1012.6 0.0
23/11:30am 22.7 16.8 -0.7 21 10.4 SE 20 35 11 19 1013.4 1013.3 0.0
23/11:00am 21.6 14.5 -1.0 22 9.9 SE 26 43 14 23 1014.0 1013.9 0.0
23/10:30am 20.8 13.8 -0.5 24 9.4 SSE 26 48 14 26 1014.5 1014.4 0.0
23/10:00am 20.1 13.2 0.0 26 8.9 SE 26 43 14 23 1014.9 1014.8 0.0
23/09:30am 19.4 12.8 -0.1 27 8.5 SE 24 43 13 23 1015.2 1015.1 0.0
23/09:00am 18.7 12.7 1.2 31 7.8 SE 22 39 12 21 1015.1 1015.0 0.0
23/08:30am 17.5 10.4 1.5 34 7.1 SSE 28 43 15 23 1015.0 1014.9 0.0
23/08:03am 16.7 9.6 1.6 36 6.7 SSE 28 50 15 27 1014.8 1014.7 0.0
23/08:00am 16.6 9.9 1.5 36 6.7 SSE 26 50 14 27 1014.8 1014.7 0.0
23/07:30am 15.9 9.7 2.0 39 6.2 SSE 24 39 13 21 1014.7 1014.6 0.0
23/07:00am 15.1 9.6 1.6 40 5.9 SSE 20 32 11 17 1014.6 1014.5 0.0
23/06:30am 14.5 9.1 1.1 40 5.8 SSE 19 30 10 16 1014.2 1014.1 0.0
23/06:00am 14.8 9.3 0.3 37 6.1 SSE 19 32 10 17 1013.9 1013.8 0.0
23/05:30am 14.9 10.0 -0.4 35 6.4 SSE 15 24 8 13 1013.5 1013.4 0.0
23/05:00am 15.8 9.5 -0.8 32 6.9 SSE 22 33 12 18 1013.0 1012.9 0.0
23/04:30am 16.3 10.3 -1.7 29 7.4 SSE 20 32 11 17 1012.6 1012.5 0.0
23/04:00am 16.8 10.3 -2.8 26 7.9 SSE 22 39 12 21 1012.4 1012.3 0.0
23/03:30am 16.6 10.4 -3.0 26 7.9 SSE 20 30 11 16 1011.9 1011.8 0.0
23/03:00am 16.5 10.9 -3.0 26 7.8 S 17 26 9 14 1011.8 1011.7 0.0
23/02:30am 17.1 11.5 -2.5 26 8.0 S 17 26 9 14 1011.4 1011.3 0.0
23/02:00am 17.5 11.9 -2.7 25 8.3 S 17 24 9 13 1011.3 1011.2 0.0
23/01:30am 18.5 12.6 -2.4 24 8.7 S 19 28 10 15 1011.2 1011.1 0.0
23/01:00am 18.8 13.0 -1.6 25 8.6 S 19 32 10 17 1011.1 1011.0 0.0
23/12:30am 18.3 12.6 -1.0 27 8.2 S 19 24 10 13 1011.1 1011.0 0.0
23/12:00am 15.2 11.0 1.7 40 5.9 S 13 17 7 9 1011.0 1010.9 0.0
 
Date/Time
WST
Temp
°C
App
Temp
°C
Dew
Point
°C
Rel
Hum
%
Delta-T
°C
Wind Press
QNH
hPa
Press
MSL
hPa
Rain since
9am
mm
Dir  Spd
km/h
Gust
km/h
Spd
kts
Gust
kts
22/11:30pm 14.5 11.7 8.7 68 2.9 S 13 15 7 8 1010.9 1010.8 0.0
22/11:00pm 14.2 12.9 11.2 82 1.6 SW 9 13 5 7 1010.9 1010.8 0.0
22/10:30pm 15.3 14.2 12.1 81 1.7 WSW 9 13 5 7 1010.7 1010.6 0.0
22/10:00pm 15.3 14.2 11.9 80 1.8 WSW 9 11 5 6 1010.8 1010.7 0.0
22/09:30pm 16.6 15.7 12.6 77 2.2 SW 9 11 5 6 1010.7 1010.6 0.0
22/09:00pm 17.4 15.9 13.1 76 2.4 WSW 13 15 7 8 1010.9 1010.8 0.0
22/08:30pm 18.4 17.7 13.1 71 3.0 WSW 9 11 5 6 1010.6 1010.5 0.0
22/08:00pm 19.6 18.6 13.3 67 3.6 W 11 15 6 8 1010.3 1010.2 0.0
22/07:30pm 20.0 18.4 12.7 63 4.1 W 13 17 7 9 1009.9 1009.8 0.0
22/07:00pm 20.2 18.9 12.4 61 4.4 W 11 15 6 8 1009.5 1009.4 0.0
22/06:30pm 21.1 19.7 12.3 57 5.0 W 11 17 6 9 1009.1 1009.0 0.0
22/06:00pm 22.2 19.9 11.9 52 5.8 WNW 15 20 8 11 1008.6 1008.5 0.0
22/05:30pm 23.6 20.7 11.0 45 7.0 WNW 17 24 9 13 1008.1 1008.0 0.0
22/05:00pm 24.8 21.1 10.3 40 8.0 NW 20 33 11 18 1007.8 1007.7 0.0
22/04:30pm 25.5 20.4 7.6 32 9.5 WNW 24 35 13 19 1007.6 1007.5 0.0
22/04:00pm 25.7 20.5 8.7 34 9.2 NW 26 41 14 22 1007.6 1007.5 0.0
22/03:30pm 26.1 20.1 7.2 30 10.0 WNW 28 43 15 23 1007.6 1007.5 0.0
22/03:00pm 26.1 20.5 8.6 33 9.5 NW 28 41 15 22 1007.8 1007.7 0.0
22/02:30pm 27.0 23.3 11.5 38 8.9 NW 22 33 12 18 1008.0 1007.9 0.0
22/02:00pm 27.1 22.2 9.9 34 9.6 NW 26 39 14 21 1008.2 1008.1 0.0
22/01:30pm 27.3 22.6 9.2 32 10.0 WNW 24 37 13 20 1008.5 1008.4 0.0
22/01:00pm 26.7 21.6 9.1 33 9.7 NW 26 39 14 21 1008.9 1008.8 0.0
22/12:30pm 26.7 22.1 11.2 38 8.8 WNW 26 35 14 19 1009.4 1009.3 0.0
22/12:00pm 26.7 21.3 9.5 34 9.5 WNW 28 43 15 23 1009.9 1009.8 0.0
22/11:30am 27.5 23.6 10.7 35 9.5 WNW 22 35 12 19 1010.3 1010.2 0.0
22/11:00am 25.8 22.3 13.3 46 7.3 WNW 24 35 13 19 1010.9 1010.8 0.0
22/10:30am 25.7 22.8 13.9 48 7.0 WNW 22 35 12 19 1011.1 1011.0 0.0
22/10:00am 25.7 22.5 13.2 46 7.3 WNW 22 35 12 19 1011.3 1011.2 0.0
22/09:30am 25.7 22.3 12.5 44 7.6 WNW 22 32 12 17 1011.4 1011.3 0.0
22/09:00am 25.4 22.9 13.6 48 6.9 W 19 32 10 17 1011.6 1011.5 0.0
22/08:30am 24.0 23.5 15.8 60 5.0 WNW 13 19 7 10 1011.6 1011.5 0.0
22/08:00am 22.1 22.4 15.0 64 4.2 SW 7 11 4 6 1011.6 1011.5 0.0
22/07:30am 18.4 17.0 9.5 56 4.7 SSW 7 7 4 4 1011.4 1011.3 0.0
22/07:00am 15.8 13.4 7.1 56 4.3 SSE 9 13 5 7 1011.2 1011.1 0.0
22/06:30am 14.6 12.9 8.5 67 3.1 S 7 13 4 7 1010.8 1010.7 0.0
22/06:00am 15.1 13.1 8.6 65 3.3 S 9 13 5 7 1010.6 1010.5 0.0
22/05:30am 15.4 13.3 9.7 69 3.0 S 11 15 6 8 1010.2 1010.1 0.0
22/05:00am 15.3 12.7 10.7 74 2.4 SSW 15 17 8 9 1009.9 1009.8 0.0
22/04:30am 14.7 13.5 11.5 81 1.7 S 9 13 5 7 1009.9 1009.8 0.0
22/04:00am 15.3 14.0 12.4 83 1.6 S 11 13 6 7 1009.9 1009.8 0.0
22/03:30am 13.9 12.6 11.2 84 1.4 SE 9 13 5 7 1009.8 1009.7 0.0
22/03:00am 14.8 13.5 12.5 86 1.3 SW 11 13 6 7 1009.8 1009.7 0.0
22/02:30am 14.4 13.4 12.3 87 1.1 SW 9 11 5 6 1009.7 1009.6 0.0
22/02:00am 15.0 13.8 12.7 86 1.3 SW 11 13 6 7 1010.0 1009.9 0.0
22/01:30am 15.0 14.1 12.5 85 1.4 SW 9 11 5 6 1010.2 1010.1 0.0
22/01:00am 15.1 13.8 12.4 84 1.5 SW 11 13 6 7 1010.4 1010.3 0.0
22/12:30am 15.5 14.2 12.4 82 1.7 SW 11 11 6 6 1010.6 1010.5 0.0
22/12:00am 15.9 14.6 12.6 81 1.8 SW 11 13 6 7 1010.8 1010.7 0.0
 
Date/Time
WST
Temp
°C
App
Temp
°C
Dew
Point
°C
Rel
Hum
%
Delta-T
°C
Wind Press
QNH
hPa
Press
MSL
hPa
Rain since
9am
mm
Dir  Spd
km/h
Gust
km/h
Spd
kts
Gust
kts
21/11:30pm 15.9 14.6 12.5 80 1.9 SW 11 13 6 7 1010.9 1010.8 0.0
21/11:00pm 15.8 14.7 12.0 78 2.1 SW 9 11 5 6 1011.1 1011.0 0.0
21/10:30pm 16.7 15.8 12.5 76 2.3 SW 9 9 5 5 1011.2 1011.1 0.0
21/10:00pm 17.4 16.5 12.7 74 2.6 SW 9 13 5 7 1011.4 1011.3 0.0
21/09:30pm 17.9 16.8 13.2 74 2.6 WSW 11 11 6 6 1011.4 1011.3 0.0
21/09:00pm 18.4 17.7 14.3 77 2.4 WSW 11 13 6 7 1011.4 1011.3 0.0
21/08:30pm 18.2 17.5 14.3 78 2.2 WSW 11 13 6 7 1011.2 1011.1 0.0

Other Formats:

Comma delimited format used in spreadsheet applications
http://www.bom.gov.au/fwo/IDW60801/IDW60801.94200.axf

JavaScript Object Notation format (JSON) in row-major order
http://www.bom.gov.au/fwo/IDW60801/IDW60801.94200.json